createdAt,value
2023-03-27T00:00:42.337Z,1003.16
2023-03-27T00:01:42.322Z,1003.22
2023-03-27T00:02:42.357Z,1003.23
2023-03-27T00:03:42.338Z,1003.30
2023-03-27T00:04:42.301Z,1003.31
2023-03-27T00:05:42.258Z,1003.25
2023-03-27T00:06:42.232Z,1003.34
2023-03-27T00:07:42.200Z,1003.34
2023-03-27T00:08:42.233Z,1003.36
2023-03-27T00:09:42.235Z,1003.39
2023-03-27T00:10:42.242Z,1003.38
2023-03-27T00:11:42.232Z,1003.38
2023-03-27T00:12:42.174Z,1003.40
2023-03-27T00:13:48.986Z,1003.44
2023-03-27T00:14:43.153Z,1003.43
2023-03-27T00:15:42.147Z,1003.50
2023-03-27T00:16:42.190Z,1003.52
2023-03-27T00:17:42.235Z,1003.54
2023-03-27T00:18:42.139Z,1003.56
2023-03-27T00:19:42.106Z,1003.53
2023-03-27T00:20:42.274Z,1003.60
2023-03-27T00:21:42.119Z,1003.56
2023-03-27T00:22:42.079Z,1003.64
2023-03-27T00:23:42.080Z,1003.65
2023-03-27T00:24:42.134Z,1003.64
2023-03-27T00:25:42.020Z,1003.64
2023-03-27T00:26:42.079Z,1003.67
2023-03-27T00:27:42.015Z,1003.64
2023-03-27T00:28:42.024Z,1003.67
2023-03-27T00:29:41.980Z,1003.71
2023-03-27T00:30:45.877Z,1003.72
2023-03-27T00:31:42.003Z,1003.77
2023-03-27T00:32:42.032Z,1003.74
2023-03-27T00:33:41.944Z,1003.74
2023-03-27T00:34:41.932Z,1003.81
2023-03-27T00:35:41.962Z,1003.82
2023-03-27T00:36:41.944Z,1003.84
2023-03-27T00:37:41.894Z,1003.85
2023-03-27T00:38:41.909Z,1003.85
2023-03-27T00:39:41.868Z,1003.84
2023-03-27T00:40:42.218Z,1003.87
2023-03-27T00:41:41.875Z,1003.89
2023-03-27T00:42:41.861Z,1003.84
2023-03-27T00:43:41.855Z,1003.91
2023-03-27T00:44:41.844Z,1003.87
2023-03-27T00:45:41.821Z,1003.88
2023-03-27T00:46:41.870Z,1003.94
2023-03-27T00:47:41.862Z,1003.93
2023-03-27T00:48:41.798Z,1003.94
2023-03-27T00:49:41.784Z,1003.96
2023-03-27T00:50:41.780Z,1004.00
2023-03-27T00:51:41.814Z,1003.97
2023-03-27T00:52:41.783Z,1003.99
2023-03-27T00:53:41.761Z,1004.03
2023-03-27T00:54:41.789Z,1004.03
2023-03-27T00:55:41.992Z,1004.00
2023-03-27T00:56:41.756Z,1003.96
2023-03-27T00:57:41.680Z,1003.99
2023-03-27T00:58:41.675Z,1004.04
2023-03-27T00:59:41.721Z,1004.07
2023-03-27T01:00:41.667Z,1004.08
2023-03-27T01:01:41.667Z,1004.08
2023-03-27T01:02:41.702Z,1004.13
2023-03-27T01:03:41.722Z,1004.14
2023-03-27T01:04:41.624Z,1004.14
2023-03-27T01:06:42.116Z,1004.12
2023-03-27T01:07:41.858Z,1004.18
2023-03-27T01:08:42.871Z,1004.15
2023-03-27T01:09:41.852Z,1004.18
2023-03-27T01:10:41.868Z,1004.19
2023-03-27T01:11:41.824Z,1004.25
2023-03-27T01:12:41.818Z,1004.20
2023-03-27T01:13:41.799Z,1004.22
2023-03-27T01:14:41.844Z,1004.23
2023-03-27T01:15:41.799Z,1004.22
2023-03-27T01:16:41.784Z,1004.22
2023-03-27T01:17:41.782Z,1004.22
2023-03-27T01:18:41.756Z,1004.22
2023-03-27T01:19:41.754Z,1004.23
2023-03-27T01:20:41.726Z,1004.24
2023-03-27T01:21:41.699Z,1004.28
2023-03-27T01:22:41.696Z,1004.26
2023-03-27T01:24:00.217Z,1004.28
2023-03-27T01:24:42.686Z,1004.33
2023-03-27T01:25:41.676Z,1004.35
2023-03-27T01:26:41.722Z,1004.38
2023-03-27T01:27:41.644Z,1004.44
2023-03-27T01:28:41.652Z,1004.42
2023-03-27T01:29:41.633Z,1004.43
2023-03-27T01:30:41.618Z,1004.47
2023-03-27T01:31:41.645Z,1004.47
2023-03-27T01:32:41.656Z,1004.46
2023-03-27T01:33:41.577Z,1004.41
2023-03-27T01:34:41.560Z,1004.49
2023-03-27T01:35:41.617Z,1004.45
2023-03-27T01:36:41.567Z,1004.55
2023-03-27T01:37:41.534Z,1004.52
2023-03-27T01:38:41.547Z,1004.54
2023-03-27T01:39:41.578Z,1004.61
2023-03-27T01:40:41.530Z,1004.56
2023-03-27T01:41:41.556Z,1004.67
2023-03-27T01:42:41.497Z,1004.63
2023-03-27T01:43:41.487Z,1004.59
2023-03-27T01:44:43.952Z,1004.66
2023-03-27T01:45:41.459Z,1004.67
2023-03-27T01:46:41.489Z,1004.62
2023-03-27T01:47:41.496Z,1004.63
2023-03-27T01:48:41.456Z,1004.65
2023-03-27T01:49:41.459Z,1004.63
2023-03-27T01:50:41.414Z,1004.62
2023-03-27T01:51:41.394Z,1004.62
2023-03-27T01:52:41.417Z,1004.65
2023-03-27T01:53:41.391Z,1004.69
2023-03-27T01:54:41.394Z,1004.69
2023-03-27T01:55:41.367Z,1004.67
2023-03-27T01:56:41.402Z,1004.67
2023-03-27T01:57:48.907Z,1004.73
2023-03-27T01:58:42.390Z,1004.77
2023-03-27T01:59:41.335Z,1004.73
2023-03-27T02:00:52.453Z,1004.75
2023-03-27T02:01:42.389Z,1004.75
2023-03-27T02:02:41.333Z,1004.79
2023-03-27T02:03:41.264Z,1004.84
2023-03-27T02:04:41.370Z,1004.84
2023-03-27T02:05:41.304Z,1004.88
2023-03-27T02:06:41.262Z,1004.86
2023-03-27T02:07:41.244Z,1004.87
2023-03-27T02:08:41.254Z,1004.93
2023-03-27T02:09:41.237Z,1004.95
2023-03-27T02:10:41.233Z,1004.96
2023-03-27T02:11:41.214Z,1004.92
2023-03-27T02:12:41.200Z,1004.98
2023-03-27T02:13:41.187Z,1005.00
2023-03-27T02:14:41.167Z,1005.04
2023-03-27T02:15:41.185Z,1005.02
2023-03-27T02:16:41.257Z,1005.03
2023-03-27T02:17:41.149Z,1005.04
2023-03-27T02:18:41.132Z,1005.06
2023-03-27T02:19:41.112Z,1005.04
2023-03-27T02:20:41.115Z,1005.10
2023-03-27T02:21:41.099Z,1005.07
2023-03-27T02:22:41.112Z,1005.06
2023-03-27T02:23:41.064Z,1005.07
2023-03-27T02:24:41.105Z,1005.08
2023-03-27T02:25:41.045Z,1005.07
2023-03-27T02:26:41.072Z,1005.12
2023-03-27T02:27:41.029Z,1005.13
2023-03-27T02:28:41.108Z,1005.16
2023-03-27T02:29:41.001Z,1005.13
2023-03-27T02:30:40.983Z,1005.15
2023-03-27T02:31:41.053Z,1005.19
2023-03-27T02:32:41.089Z,1005.18
2023-03-27T02:33:41.005Z,1005.22
2023-03-27T02:34:40.960Z,1005.22
2023-03-27T02:35:40.977Z,1005.28
2023-03-27T02:36:40.954Z,1005.29
2023-03-27T02:37:40.934Z,1005.29
2023-03-27T02:38:40.917Z,1005.24
2023-03-27T02:39:40.875Z,1005.31
2023-03-27T02:40:40.912Z,1005.28
2023-03-27T02:41:40.888Z,1005.29
2023-03-27T02:42:40.911Z,1005.23
2023-03-27T02:43:40.858Z,1005.31
2023-03-27T02:44:47.527Z,1005.31
2023-03-27T02:45:41.914Z,1005.33
2023-03-27T02:46:40.855Z,1005.36
2023-03-27T02:47:40.897Z,1005.36
2023-03-27T02:48:40.825Z,1005.32
2023-03-27T02:49:40.841Z,1005.36
2023-03-27T02:50:40.827Z,1005.34
2023-03-27T02:51:40.794Z,1005.36
2023-03-27T02:52:40.784Z,1005.35
2023-03-27T02:53:40.750Z,1005.38
2023-03-27T02:54:40.753Z,1005.37
2023-03-27T02:55:40.747Z,1005.41
2023-03-27T02:56:40.766Z,1005.41
2023-03-27T02:57:40.726Z,1005.44
2023-03-27T02:58:41.805Z,1005.42
2023-03-27T02:59:40.706Z,1005.47
2023-03-27T03:00:40.773Z,1005.47
2023-03-27T03:01:40.762Z,1005.49
2023-03-27T03:02:40.741Z,1005.51
2023-03-27T03:03:40.644Z,1005.50
2023-03-27T03:04:40.661Z,1005.54
2023-03-27T03:05:40.622Z,1005.52
2023-03-27T03:06:40.659Z,1005.56
2023-03-27T03:07:40.608Z,1005.62
2023-03-27T03:08:40.567Z,1005.63
2023-03-27T03:09:41.185Z,1005.64
2023-03-27T03:10:40.596Z,1005.65
2023-03-27T03:11:40.566Z,1005.60
2023-03-27T03:12:40.588Z,1005.69
2023-03-27T03:13:40.555Z,1005.66
2023-03-27T03:14:40.554Z,1005.76
2023-03-27T03:15:40.567Z,1005.74
2023-03-27T03:16:40.610Z,1005.71
2023-03-27T03:17:40.578Z,1005.77
2023-03-27T03:18:40.544Z,1005.77
2023-03-27T03:19:40.477Z,1005.77
2023-03-27T03:20:40.471Z,1005.82
2023-03-27T03:21:40.494Z,1005.84
2023-03-27T03:22:40.449Z,1005.85
2023-03-27T03:23:40.448Z,1005.84
2023-03-27T03:24:40.449Z,1005.83
2023-03-27T03:25:40.481Z,1005.82
2023-03-27T03:26:40.403Z,1005.87
2023-03-27T03:27:40.431Z,1005.86
2023-03-27T03:28:40.368Z,1005.90
2023-03-27T03:29:41.450Z,1005.93
2023-03-27T03:30:40.362Z,1005.93
2023-03-27T03:31:40.382Z,1005.90
2023-03-27T03:32:40.372Z,1005.93
2023-03-27T03:33:40.345Z,1005.97
2023-03-27T03:34:40.336Z,1005.98
2023-03-27T03:35:40.353Z,1005.97
2023-03-27T03:36:40.318Z,1006.06
2023-03-27T03:37:40.309Z,1006.05
2023-03-27T03:38:40.310Z,1006.07
2023-03-27T03:39:40.290Z,1006.06
2023-03-27T03:40:40.262Z,1006.11
2023-03-27T03:41:40.265Z,1006.14
2023-03-27T03:42:40.236Z,1006.15
2023-03-27T03:43:40.241Z,1006.18
2023-03-27T03:44:40.232Z,1006.20
2023-03-27T03:45:40.244Z,1006.18
2023-03-27T03:46:40.306Z,1006.23
2023-03-27T03:47:40.258Z,1006.25
2023-03-27T03:48:40.167Z,1006.24
2023-03-27T03:49:40.157Z,1006.25
2023-03-27T03:50:40.148Z,1006.32
2023-03-27T03:51:40.165Z,1006.32
2023-03-27T03:52:40.185Z,1006.35
2023-03-27T03:53:40.142Z,1006.38
2023-03-27T03:54:40.122Z,1006.37
2023-03-27T03:55:40.135Z,1006.41
2023-03-27T03:56:40.086Z,1006.38
2023-03-27T03:57:40.084Z,1006.46
2023-03-27T03:58:40.054Z,1006.39
2023-03-27T03:59:40.054Z,1006.50
2023-03-27T04:00:40.174Z,1006.47
2023-03-27T04:01:40.095Z,1006.51
2023-03-27T04:02:40.068Z,1006.48
2023-03-27T04:03:40.105Z,1006.44
2023-03-27T04:04:39.995Z,1006.49
2023-03-27T04:05:40.016Z,1006.49
2023-03-27T04:06:40.031Z,1006.53
2023-03-27T04:07:40.424Z,1006.47
2023-03-27T04:08:40.006Z,1006.49
2023-03-27T04:09:39.964Z,1006.53
2023-03-27T04:10:39.956Z,1006.53
2023-03-27T04:11:39.951Z,1006.56
2023-03-27T04:12:39.892Z,1006.52
2023-03-27T04:13:39.874Z,1006.49
2023-03-27T04:14:39.894Z,1006.49
2023-03-27T04:15:39.972Z,1006.51
2023-03-27T04:16:39.887Z,1006.46
2023-03-27T04:17:39.919Z,1006.46
2023-03-27T04:18:39.988Z,1006.45
2023-03-27T04:19:39.870Z,1006.51
2023-03-27T04:20:39.861Z,1006.54
2023-03-27T04:21:39.836Z,1006.54
2023-03-27T04:22:39.832Z,1006.59
2023-03-27T04:23:39.824Z,1006.57
2023-03-27T04:24:39.810Z,1006.61
2023-03-27T04:25:39.846Z,1006.61
2023-03-27T04:26:39.800Z,1006.61
2023-03-27T04:27:39.814Z,1006.66
2023-03-27T04:28:39.788Z,1006.66
2023-03-27T04:29:39.763Z,1006.66
2023-03-27T04:30:39.754Z,1006.69
2023-03-27T04:31:39.880Z,1006.73
2023-03-27T04:32:39.750Z,1006.79
2023-03-27T04:33:39.751Z,1006.82
2023-03-27T04:34:39.702Z,1006.82
2023-03-27T04:35:39.715Z,1006.85
2023-03-27T04:36:39.670Z,1006.83
2023-03-27T04:37:39.685Z,1006.85
2023-03-27T04:38:39.620Z,1006.84
2023-03-27T04:39:39.704Z,1006.89
2023-03-27T04:40:39.636Z,1006.88
2023-03-27T04:41:39.677Z,1006.93
2023-03-27T04:42:39.616Z,1006.91
2023-03-27T04:43:39.637Z,1006.94
2023-03-27T04:44:39.579Z,1006.97
2023-03-27T04:45:39.576Z,1006.94
2023-03-27T04:46:39.626Z,1006.96
2023-03-27T04:47:39.702Z,1006.96
2023-03-27T04:48:39.618Z,1007.02
2023-03-27T04:49:39.604Z,1006.99
2023-03-27T04:50:39.543Z,1007.00
2023-03-27T04:51:39.522Z,1007.01
2023-03-27T04:52:39.533Z,1006.99
2023-03-27T04:53:39.528Z,1007.01
2023-03-27T04:54:39.491Z,1007.01
2023-03-27T04:55:39.482Z,1007.00
2023-03-27T04:56:39.462Z,1007.05
2023-03-27T04:57:39.468Z,1007.02
2023-03-27T04:58:39.458Z,1007.00
2023-03-27T04:59:39.541Z,1007.02
2023-03-27T05:00:39.468Z,1007.06
2023-03-27T05:01:40.218Z,1007.11
2023-03-27T05:02:39.714Z,1007.10
2023-03-27T05:03:39.420Z,1007.18
2023-03-27T05:04:39.345Z,1007.16
2023-03-27T05:05:39.356Z,1007.20
2023-03-27T05:06:40.528Z,1007.24
2023-03-27T05:07:39.338Z,1007.30
2023-03-27T05:08:39.314Z,1007.32
2023-03-27T05:09:39.312Z,1007.31
2023-03-27T05:10:39.316Z,1007.39
2023-03-27T05:11:39.320Z,1007.34
2023-03-27T05:12:39.331Z,1007.25
2023-03-27T05:13:39.282Z,1007.29
2023-03-27T05:14:39.244Z,1007.37
2023-03-27T05:15:39.337Z,1007.35
2023-03-27T05:16:39.300Z,1007.39
2023-03-27T05:17:39.288Z,1007.39
2023-03-27T05:18:41.753Z,1007.40
2023-03-27T05:19:39.204Z,1007.41
2023-03-27T05:20:39.234Z,1007.51
2023-03-27T05:21:39.227Z,1007.45
2023-03-27T05:22:39.218Z,1007.47
2023-03-27T05:23:39.172Z,1007.42
2023-03-27T05:24:39.158Z,1007.41
2023-03-27T05:25:39.191Z,1007.38
2023-03-27T05:26:39.185Z,1007.43
2023-03-27T05:27:39.183Z,1007.44
2023-03-27T05:28:39.116Z,1007.38
2023-03-27T05:29:46.354Z,1007.40
2023-03-27T05:30:40.767Z,1007.41
2023-03-27T05:31:39.092Z,1007.38
2023-03-27T05:32:39.093Z,1007.42
2023-03-27T05:33:39.215Z,1007.40
2023-03-27T05:34:39.060Z,1007.43
2023-03-27T05:35:39.084Z,1007.47
2023-03-27T05:36:39.083Z,1007.41
2023-03-27T05:37:39.080Z,1007.44
2023-03-27T05:38:39.005Z,1007.48
2023-03-27T05:39:39.004Z,1007.50
2023-03-27T05:40:39.002Z,1007.52
2023-03-27T05:41:39.023Z,1007.50
2023-03-27T05:42:39.004Z,1007.55
2023-03-27T05:43:38.983Z,1007.53
2023-03-27T05:44:39.012Z,1007.54
2023-03-27T05:45:38.978Z,1007.58
2023-03-27T05:46:38.958Z,1007.55
2023-03-27T05:47:38.988Z,1007.57
2023-03-27T05:48:38.923Z,1007.51
2023-03-27T05:49:38.889Z,1007.58
2023-03-27T05:50:38.890Z,1007.58
2023-03-27T05:51:38.919Z,1007.57
2023-03-27T05:52:39.856Z,1007.66
2023-03-27T05:53:38.921Z,1007.60
2023-03-27T05:54:38.840Z,1007.62
2023-03-27T05:55:38.841Z,1007.59
2023-03-27T05:56:38.864Z,1007.62
2023-03-27T05:57:38.826Z,1007.62
2023-03-27T05:58:38.826Z,1007.64
2023-03-27T05:59:38.801Z,1007.63
2023-03-27T06:00:38.899Z,1007.64
2023-03-27T06:01:38.825Z,1007.72
2023-03-27T06:02:38.863Z,1007.65
2023-03-27T06:03:38.911Z,1007.61
2023-03-27T06:04:39.032Z,1007.54
2023-03-27T06:05:38.757Z,1007.61
2023-03-27T06:06:38.711Z,1007.61
2023-03-27T06:07:40.312Z,1007.68
2023-03-27T06:08:38.679Z,1007.61
2023-03-27T06:09:38.681Z,1007.64
2023-03-27T06:10:38.709Z,1007.62
2023-03-27T06:11:38.660Z,1007.71
2023-03-27T06:12:38.653Z,1007.73
2023-03-27T06:13:38.628Z,1007.70
2023-03-27T06:14:38.630Z,1007.73
2023-03-27T06:15:38.713Z,1007.67
2023-03-27T06:16:38.627Z,1007.72
2023-03-27T06:17:38.695Z,1007.75
2023-03-27T06:18:38.634Z,1007.79
2023-03-27T06:19:38.595Z,1007.81
2023-03-27T06:20:38.570Z,1007.79
2023-03-27T06:21:40.520Z,1007.83
2023-03-27T06:22:38.550Z,1007.89
2023-03-27T06:23:38.542Z,1007.87
2023-03-27T06:24:38.525Z,1007.90
2023-03-27T06:25:38.538Z,1007.87
2023-03-27T06:26:38.544Z,1007.91
2023-03-27T06:27:38.534Z,1007.90
2023-03-27T06:28:38.487Z,1007.87
2023-03-27T06:29:38.620Z,1007.82
2023-03-27T06:30:38.481Z,1007.82
2023-03-27T06:31:38.557Z,1007.92
2023-03-27T06:32:38.495Z,1007.90
2023-03-27T06:33:38.462Z,1007.90
2023-03-27T06:34:38.416Z,1007.91
2023-03-27T06:35:38.506Z,1007.92
2023-03-27T06:36:38.404Z,1007.94
2023-03-27T06:37:38.403Z,1007.98
2023-03-27T06:38:38.383Z,1008.05
2023-03-27T06:39:38.381Z,1008.15
2023-03-27T06:40:38.378Z,1008.10
2023-03-27T06:41:38.354Z,1008.12
2023-03-27T06:42:38.345Z,1008.14
2023-03-27T06:43:38.330Z,1008.19
2023-03-27T06:44:38.336Z,1008.16
2023-03-27T06:45:38.298Z,1008.13
2023-03-27T06:46:45.074Z,1008.19
2023-03-27T06:47:51.567Z,1008.17
2023-03-27T06:48:39.342Z,1008.24
2023-03-27T06:49:38.258Z,1008.15
2023-03-27T06:50:38.263Z,1008.14
2023-03-27T06:51:38.265Z,1008.13
2023-03-27T06:52:38.283Z,1008.08
2023-03-27T06:53:38.376Z,1008.17
2023-03-27T06:54:38.202Z,1008.23
2023-03-27T06:55:38.212Z,1008.21
2023-03-27T06:56:38.235Z,1008.19
2023-03-27T06:57:38.190Z,1008.19
2023-03-27T06:58:38.172Z,1008.18
2023-03-27T06:59:38.183Z,1008.12
2023-03-27T07:00:38.394Z,1008.13
2023-03-27T07:01:38.228Z,1008.19
2023-03-27T07:02:38.153Z,1008.12
2023-03-27T07:03:38.162Z,1008.17
2023-03-27T07:04:38.114Z,1008.21
2023-03-27T07:05:38.204Z,1008.22
2023-03-27T07:06:45.537Z,1008.25
2023-03-27T07:07:40.307Z,1008.21
2023-03-27T07:08:38.031Z,1008.28
2023-03-27T07:09:40.069Z,1008.28
2023-03-27T07:10:38.017Z,1008.22
2023-03-27T07:11:38.039Z,1008.31
2023-03-27T07:12:37.996Z,1008.25
2023-03-27T07:13:37.999Z,1008.33
2023-03-27T07:14:37.969Z,1008.35
2023-03-27T07:15:37.984Z,1008.36
2023-03-27T07:16:38.234Z,1008.32
2023-03-27T07:17:48.071Z,1008.41
2023-03-27T07:18:38.939Z,1008.35
2023-03-27T07:19:37.931Z,1008.43
2023-03-27T07:20:37.917Z,1008.37
2023-03-27T07:21:37.902Z,1008.37
2023-03-27T07:22:37.886Z,1008.41
2023-03-27T07:23:37.872Z,1008.46
2023-03-27T07:24:37.859Z,1008.48
2023-03-27T07:25:37.864Z,1008.47
2023-03-27T07:26:37.835Z,1008.52
2023-03-27T07:27:37.836Z,1008.47
2023-03-27T07:28:37.840Z,1008.46
2023-03-27T07:29:38.778Z,1008.49
2023-03-27T07:30:37.798Z,1008.49
2023-03-27T07:32:38.166Z,1008.46
2023-03-27T07:33:37.896Z,1008.52
2023-03-27T07:34:37.782Z,1008.52
2023-03-27T07:35:37.748Z,1008.51
2023-03-27T07:36:37.733Z,1008.53
2023-03-27T07:37:38.211Z,1008.56
2023-03-27T07:38:37.712Z,1008.58
2023-03-27T07:39:37.691Z,1008.57
2023-03-27T07:40:40.541Z,1008.57
2023-03-27T07:41:37.682Z,1008.51
2023-03-27T07:42:37.675Z,1008.50
2023-03-27T07:43:37.652Z,1008.49
2023-03-27T07:44:38.612Z,1008.54
2023-03-27T07:45:37.687Z,1008.54
2023-03-27T07:46:37.635Z,1008.54
2023-03-27T07:47:37.641Z,1008.58
2023-03-27T07:48:37.613Z,1008.56
2023-03-27T07:49:40.070Z,1008.65
2023-03-27T07:50:37.654Z,1008.71
2023-03-27T07:51:37.578Z,1008.61
2023-03-27T07:52:37.589Z,1008.65
2023-03-27T07:53:37.542Z,1008.67
2023-03-27T07:54:37.546Z,1008.63
2023-03-27T07:55:37.525Z,1008.69
2023-03-27T07:56:37.554Z,1008.67
2023-03-27T07:57:49.791Z,1008.74
2023-03-27T07:58:38.636Z,1008.72
2023-03-27T07:59:37.494Z,1008.71
2023-03-27T08:00:37.479Z,1008.66
2023-03-27T08:01:37.464Z,1008.84
2023-03-27T08:02:37.467Z,1008.72
2023-03-27T08:03:37.509Z,1008.79
2023-03-27T08:04:37.553Z,1008.90
2023-03-27T08:05:37.422Z,1008.84
2023-03-27T08:06:37.439Z,1008.78
2023-03-27T08:07:37.416Z,1008.75
2023-03-27T08:08:37.626Z,1008.82
2023-03-27T08:09:37.393Z,1008.82
2023-03-27T08:10:37.371Z,1008.81
2023-03-27T08:11:37.355Z,1008.80
2023-03-27T08:12:37.356Z,1008.85
2023-03-27T08:13:37.334Z,1008.90
2023-03-27T08:14:37.332Z,1008.96
2023-03-27T08:15:37.308Z,1008.90
2023-03-27T08:16:37.363Z,1008.94
2023-03-27T08:17:37.342Z,1008.93
2023-03-27T08:18:37.304Z,1008.96
2023-03-27T08:19:37.267Z,1009.04
2023-03-27T08:20:37.264Z,1008.94
2023-03-27T08:21:37.244Z,1008.98
2023-03-27T08:22:37.263Z,1008.96
2023-03-27T08:23:37.213Z,1008.95
2023-03-27T08:24:37.228Z,1008.90
2023-03-27T08:25:37.228Z,1008.91
2023-03-27T08:26:37.205Z,1008.91
2023-03-27T08:27:37.175Z,1008.89
2023-03-27T08:28:37.182Z,1008.92
2023-03-27T08:29:37.166Z,1008.80
2023-03-27T08:30:37.196Z,1008.88
2023-03-27T08:31:37.132Z,1008.84
2023-03-27T08:32:37.186Z,1008.84
2023-03-27T08:33:37.121Z,1008.79
2023-03-27T08:34:37.154Z,1008.87
2023-03-27T08:35:37.176Z,1008.82
2023-03-27T08:36:37.093Z,1009.00
2023-03-27T08:37:37.071Z,1008.87
2023-03-27T08:38:37.060Z,1008.96
2023-03-27T08:39:37.121Z,1008.99
2023-03-27T08:40:37.054Z,1008.81
2023-03-27T08:41:37.022Z,1008.85
2023-03-27T08:42:37.095Z,1008.96
2023-03-27T08:43:36.981Z,1009.00
2023-03-27T08:44:37.028Z,1008.91
2023-03-27T08:45:36.995Z,1009.00
2023-03-27T08:46:37.037Z,1009.03
2023-03-27T08:47:36.996Z,1009.00
2023-03-27T08:48:36.958Z,1009.03
2023-03-27T08:49:36.952Z,1009.12
2023-03-27T08:50:36.931Z,1008.98
2023-03-27T08:51:36.908Z,1009.10
2023-03-27T08:52:36.972Z,1009.05
2023-03-27T08:53:36.885Z,1008.95
2023-03-27T08:54:36.923Z,1009.03
2023-03-27T08:55:36.895Z,1009.03
2023-03-27T08:56:36.895Z,1009.11
2023-03-27T08:57:36.851Z,1008.95
2023-03-27T08:58:36.864Z,1009.10
2023-03-27T08:59:36.850Z,1009.08
2023-03-27T09:00:36.849Z,1009.06
2023-03-27T09:01:36.957Z,1009.08
2023-03-27T09:02:36.940Z,1009.12
2023-03-27T09:03:36.856Z,1009.13
2023-03-27T09:04:37.757Z,1009.14
2023-03-27T09:05:36.787Z,1009.04
2023-03-27T09:06:36.772Z,1009.12
2023-03-27T09:07:36.745Z,1009.21
2023-03-27T09:08:36.773Z,1009.31
2023-03-27T09:09:36.710Z,1009.22
2023-03-27T09:10:37.120Z,1009.19
2023-03-27T09:11:36.714Z,1009.16
2023-03-27T09:12:37.336Z,1009.34
2023-03-27T09:13:36.683Z,1009.21
2023-03-27T09:14:36.676Z,1009.16
2023-03-27T09:15:36.685Z,1009.21
2023-03-27T09:16:36.700Z,1009.23
2023-03-27T09:17:36.666Z,1009.06
2023-03-27T09:18:36.655Z,1009.25
2023-03-27T09:19:36.598Z,1009.18
2023-03-27T09:20:36.623Z,1009.21
2023-03-27T09:21:36.592Z,1009.11
2023-03-27T09:22:36.592Z,1009.16
2023-03-27T09:23:36.571Z,1009.11
2023-03-27T09:24:36.581Z,1008.97
2023-03-27T09:25:36.545Z,1009.09
2023-03-27T09:26:36.860Z,1009.04
2023-03-27T09:27:36.536Z,1009.00
2023-03-27T09:28:36.535Z,1009.12
2023-03-27T09:29:36.514Z,1008.91
2023-03-27T09:30:36.524Z,1009.06
2023-03-27T09:31:36.533Z,1009.19
2023-03-27T09:32:36.526Z,1009.20
2023-03-27T09:33:36.469Z,1009.19
2023-03-27T09:34:36.463Z,1009.24
2023-03-27T09:35:36.485Z,1009.20
2023-03-27T09:36:36.427Z,1009.14
2023-03-27T09:37:36.968Z,1009.08
2023-03-27T09:38:36.424Z,1009.15
2023-03-27T09:39:36.387Z,1009.20
2023-03-27T09:40:36.393Z,1009.16
2023-03-27T09:41:36.406Z,1009.20
2023-03-27T09:42:36.375Z,1009.21
2023-03-27T09:43:36.345Z,1009.02
2023-03-27T09:44:36.352Z,1009.23
2023-03-27T09:45:36.326Z,1009.14
2023-03-27T09:46:36.345Z,1009.10
2023-03-27T09:47:36.352Z,1009.29
2023-03-27T09:48:36.320Z,1009.13
2023-03-27T09:49:36.274Z,1009.20
2023-03-27T09:50:36.312Z,1009.17
2023-03-27T09:51:36.271Z,1008.96
2023-03-27T09:52:36.267Z,1009.06
2023-03-27T09:53:36.227Z,1008.99
2023-03-27T09:54:36.242Z,1009.10
2023-03-27T09:55:36.212Z,1009.19
2023-03-27T09:56:36.262Z,1009.15
2023-03-27T09:57:36.216Z,1009.10
2023-03-27T09:58:36.199Z,1009.14
2023-03-27T09:59:36.184Z,1009.17
2023-03-27T10:00:36.178Z,1009.14
2023-03-27T10:01:36.268Z,1009.19
2023-03-27T10:02:36.182Z,1009.11
2023-03-27T10:03:36.184Z,1009.10
2023-03-27T10:04:36.145Z,1009.11
2023-03-27T10:05:36.122Z,1009.13
2023-03-27T10:06:36.103Z,1009.15
2023-03-27T10:07:36.088Z,1009.10
2023-03-27T10:08:36.076Z,1009.10
2023-03-27T10:09:36.082Z,1009.34
2023-03-27T10:10:36.078Z,1009.24
2023-03-27T10:11:36.071Z,1009.20
2023-03-27T10:12:36.270Z,1009.28
2023-03-27T10:13:36.028Z,1009.27
2023-03-27T10:14:36.073Z,1009.18
2023-03-27T10:15:36.023Z,1009.15
2023-03-27T10:16:36.017Z,1009.24
2023-03-27T10:17:36.093Z,1009.25
2023-03-27T10:18:35.997Z,1009.34
2023-03-27T10:19:35.954Z,1009.28
2023-03-27T10:20:35.969Z,1009.30
2023-03-27T10:21:35.953Z,1009.26
2023-03-27T10:22:35.942Z,1009.31
2023-03-27T10:23:35.966Z,1009.35
2023-03-27T10:24:35.963Z,1009.28
2023-03-27T10:25:36.917Z,1009.35
2023-03-27T10:26:35.896Z,1009.49
2023-03-27T10:27:35.881Z,1009.33
2023-03-27T10:28:35.870Z,1009.43
2023-03-27T10:29:36.465Z,1009.37
2023-03-27T10:30:35.852Z,1009.49
2023-03-27T10:31:35.868Z,1009.43
2023-03-27T10:32:35.852Z,1009.44
2023-03-27T10:33:35.851Z,1009.51
2023-03-27T10:34:35.792Z,1009.56
2023-03-27T10:35:37.006Z,1009.53
2023-03-27T10:36:35.786Z,1009.58
2023-03-27T10:37:35.757Z,1009.54
2023-03-27T10:38:35.771Z,1009.60
2023-03-27T10:39:35.755Z,1009.48
2023-03-27T10:40:35.760Z,1009.57
2023-03-27T10:41:35.720Z,1009.57
2023-03-27T10:42:35.749Z,1009.56
2023-03-27T10:43:35.802Z,1009.53
2023-03-27T10:44:35.701Z,1009.58
2023-03-27T10:45:35.725Z,1009.60
2023-03-27T10:46:35.718Z,1009.52
2023-03-27T10:47:35.774Z,1009.57
2023-03-27T10:48:35.681Z,1009.54
2023-03-27T10:49:35.639Z,1009.50
2023-03-27T10:50:35.626Z,1009.52
2023-03-27T10:51:45.559Z,1009.48
2023-03-27T10:52:36.617Z,1009.53
2023-03-27T10:53:35.626Z,1009.54
2023-03-27T10:54:35.643Z,1009.58
2023-03-27T10:55:35.581Z,1009.54
2023-03-27T10:56:35.651Z,1009.55
2023-03-27T10:57:35.561Z,1009.53
2023-03-27T10:58:35.570Z,1009.54
2023-03-27T10:59:41.534Z,1009.57
2023-03-27T11:00:36.531Z,1009.57
2023-03-27T11:01:35.570Z,1009.63
2023-03-27T11:02:35.590Z,1009.61
2023-03-27T11:03:35.519Z,1009.67
2023-03-27T11:04:35.470Z,1009.71
2023-03-27T11:05:35.490Z,1009.79
2023-03-27T11:06:35.449Z,1009.83
2023-03-27T11:07:35.438Z,1010.00
2023-03-27T11:08:35.429Z,1009.93
2023-03-27T11:09:35.550Z,1010.27
2023-03-27T11:10:35.417Z,1010.33
2023-03-27T11:11:35.390Z,1010.42
2023-03-27T11:12:35.385Z,1010.34
2023-03-27T11:13:35.381Z,1010.41
2023-03-27T11:14:35.565Z,1010.45
2023-03-27T11:15:35.353Z,1010.43
2023-03-27T11:16:35.427Z,1010.45
2023-03-27T11:17:35.330Z,1010.30
2023-03-27T11:18:35.332Z,1010.27
2023-03-27T11:19:35.414Z,1010.22
2023-03-27T11:20:35.304Z,1010.19
2023-03-27T11:21:35.282Z,1010.22
2023-03-27T11:22:35.291Z,1010.14
2023-03-27T11:23:35.280Z,1010.18
2023-03-27T11:24:35.395Z,1010.15
2023-03-27T11:25:35.232Z,1010.17
2023-03-27T11:26:35.246Z,1010.04
2023-03-27T11:27:35.222Z,1010.02
2023-03-27T11:28:35.256Z,1010.02
2023-03-27T11:29:35.242Z,1009.89
2023-03-27T11:30:35.199Z,1009.91
2023-03-27T11:31:35.222Z,1009.86
2023-03-27T11:32:35.199Z,1009.86
2023-03-27T11:33:35.145Z,1009.82
2023-03-27T11:34:35.154Z,1009.83
2023-03-27T11:35:35.159Z,1009.82
2023-03-27T11:36:35.139Z,1009.81
2023-03-27T11:37:35.117Z,1009.79
2023-03-27T11:38:35.119Z,1009.76
2023-03-27T11:39:35.082Z,1009.79
2023-03-27T11:40:35.134Z,1009.73
2023-03-27T11:41:35.137Z,1009.67
2023-03-27T11:42:35.070Z,1009.71
2023-03-27T11:43:35.066Z,1009.67
2023-03-27T11:44:35.074Z,1009.66
2023-03-27T11:45:35.076Z,1009.70
2023-03-27T11:46:35.053Z,1009.65
2023-03-27T11:47:35.056Z,1009.67
2023-03-27T11:48:35.000Z,1009.73
2023-03-27T11:49:34.986Z,1009.72
2023-03-27T11:50:35.012Z,1009.60
2023-03-27T11:51:34.980Z,1009.79
2023-03-27T11:52:34.970Z,1009.72
2023-03-27T11:53:34.965Z,1009.69
2023-03-27T11:54:34.940Z,1009.64
2023-03-27T11:55:34.937Z,1009.67
2023-03-27T11:56:35.011Z,1009.65
2023-03-27T11:57:34.927Z,1009.64
2023-03-27T11:58:34.889Z,1009.60
2023-03-27T11:59:34.876Z,1009.63
2023-03-27T12:00:34.858Z,1009.54
2023-03-27T12:01:34.897Z,1009.52
2023-03-27T12:02:34.912Z,1009.53
2023-03-27T12:03:34.972Z,1009.52
2023-03-27T12:04:34.827Z,1009.39
2023-03-27T12:05:34.829Z,1009.47
2023-03-27T12:06:34.796Z,1009.46
2023-03-27T12:07:37.880Z,1009.38